createdAt,value
2023-04-05T00:00:20.513Z,9.745019
2023-04-05T00:01:20.508Z,9.745702
2023-04-05T00:02:20.499Z,9.745781
2023-04-05T00:03:20.603Z,9.745399
2023-04-05T00:04:21.610Z,9.745510
2023-04-05T00:05:20.475Z,9.745695
2023-04-05T00:06:20.472Z,9.745198
2023-04-05T00:07:20.470Z,9.745505
2023-04-05T00:08:20.458Z,9.745672
2023-04-05T00:09:20.492Z,9.745565
2023-04-05T00:10:20.439Z,9.745493
2023-04-05T00:11:20.430Z,9.745489
2023-04-05T00:12:20.428Z,9.745522
2023-04-05T00:13:20.426Z,9.745651
2023-04-05T00:14:20.440Z,9.745993
2023-04-05T00:15:20.400Z,9.745838
2023-04-05T00:16:20.411Z,9.745530
2023-04-05T00:17:20.388Z,9.745821
2023-04-05T00:18:20.395Z,9.745562
2023-04-05T00:19:20.403Z,9.745728
2023-04-05T00:20:20.370Z,9.745709
2023-04-05T00:21:20.360Z,9.745751
2023-04-05T00:22:20.352Z,9.745730
2023-04-05T00:23:20.351Z,9.745714
2023-04-05T00:24:20.378Z,9.745551
2023-04-05T00:25:20.330Z,9.745687
2023-04-05T00:26:20.331Z,9.745609
2023-04-05T00:27:20.310Z,9.745655
2023-04-05T00:28:21.301Z,9.745602
2023-04-05T00:29:20.326Z,9.745607
2023-04-05T00:30:20.297Z,9.745641
2023-04-05T00:31:20.284Z,9.745731
2023-04-05T00:32:20.278Z,9.746151
2023-04-05T00:33:20.276Z,9.746023
2023-04-05T00:34:20.263Z,9.745611
2023-04-05T00:35:20.283Z,9.745546
2023-04-05T00:36:20.244Z,9.745642
2023-04-05T00:37:20.238Z,9.745694
2023-04-05T00:38:20.249Z,9.745988
2023-04-05T00:39:21.223Z,9.745918
2023-04-05T00:40:20.254Z,9.745660
2023-04-05T00:41:20.215Z,9.745503
2023-04-05T00:42:20.203Z,9.745541
2023-04-05T00:43:20.195Z,9.745339
2023-04-05T00:44:20.193Z,9.745398
2023-04-05T00:45:20.230Z,9.745446
2023-04-05T00:46:20.193Z,9.745497
2023-04-05T00:47:20.173Z,9.745610
2023-04-05T00:48:20.184Z,9.745564
2023-04-05T00:49:20.172Z,9.745307
2023-04-05T00:50:20.180Z,9.745696
2023-04-05T00:51:20.197Z,9.745392
2023-04-05T00:52:20.134Z,9.745320
2023-04-05T00:53:20.129Z,9.745547
2023-04-05T00:54:20.124Z,9.745566
2023-04-05T00:55:20.131Z,9.745494
2023-04-05T00:56:20.099Z,9.745496
2023-04-05T00:57:20.097Z,9.745551
2023-04-05T00:58:20.139Z,9.745593
2023-04-05T00:59:20.109Z,9.745520
2023-04-05T01:00:20.085Z,9.745468
2023-04-05T01:01:20.097Z,9.745672
2023-04-05T01:02:20.054Z,9.745277
2023-04-05T01:03:20.042Z,9.745270
2023-04-05T01:04:20.067Z,9.745485
2023-04-05T01:05:20.056Z,9.745474
2023-04-05T01:06:20.020Z,9.745661
2023-04-05T01:07:21.006Z,9.745586
2023-04-05T01:08:20.091Z,9.745300
2023-04-05T01:09:19.992Z,9.745790
2023-04-05T01:10:20.014Z,9.745718
2023-04-05T01:11:19.976Z,9.745477
2023-04-05T01:12:19.981Z,9.745452
2023-04-05T01:13:19.960Z,9.745645
2023-04-05T01:14:19.960Z,9.745469
2023-04-05T01:15:19.984Z,9.745568
2023-04-05T01:16:19.994Z,9.745479
2023-04-05T01:17:19.934Z,9.745651
2023-04-05T01:18:19.983Z,9.745681
2023-04-05T01:19:19.917Z,9.745628
2023-04-05T01:20:19.943Z,9.745569
2023-04-05T01:21:19.904Z,9.745358
2023-04-05T01:22:19.902Z,9.745966
2023-04-05T01:23:19.888Z,9.745510
2023-04-05T01:24:19.895Z,9.745317
2023-04-05T01:25:19.896Z,9.745335
2023-04-05T01:26:19.880Z,9.745301
2023-04-05T01:27:19.868Z,9.745420
2023-04-05T01:28:19.876Z,9.745377
2023-04-05T01:29:19.851Z,9.745206
2023-04-05T01:30:19.858Z,9.745351
2023-04-05T01:31:19.909Z,9.745515
2023-04-05T01:32:19.825Z,9.745504
2023-04-05T01:33:19.807Z,9.745376
2023-04-05T01:34:19.812Z,9.745481
2023-04-05T01:35:21.283Z,9.745480
2023-04-05T01:36:19.861Z,9.745277
2023-04-05T01:37:19.796Z,9.745312
2023-04-05T01:38:19.785Z,9.745351
2023-04-05T01:39:19.769Z,9.745394
2023-04-05T01:40:19.785Z,9.745417
2023-04-05T01:41:19.750Z,9.745380
2023-04-05T01:42:19.750Z,9.745612
2023-04-05T01:43:19.738Z,9.745420
2023-04-05T01:44:19.732Z,9.745955
2023-04-05T01:45:19.762Z,9.745621
2023-04-05T01:46:19.738Z,9.745382
2023-04-05T01:47:19.711Z,9.747238
2023-04-05T01:48:19.708Z,9.745730
2023-04-05T01:49:19.706Z,9.745563
2023-04-05T01:50:19.729Z,9.745360
2023-04-05T01:51:19.688Z,9.745235
2023-04-05T01:52:19.674Z,9.745235
2023-04-05T01:53:19.670Z,9.745235
2023-04-05T01:54:19.666Z,9.745235
2023-04-05T01:55:19.673Z,9.745235
2023-04-05T01:56:20.653Z,9.745235
2023-04-05T01:57:19.641Z,9.745235
2023-04-05T01:58:19.628Z,9.745235
2023-04-05T01:59:19.638Z,9.744923
2023-04-05T02:00:19.617Z,9.745515
2023-04-05T02:01:19.660Z,9.745515
2023-04-05T02:02:19.599Z,9.745112
2023-04-05T02:03:19.639Z,9.744994
2023-04-05T02:04:19.588Z,9.744994
2023-04-05T02:05:19.587Z,9.744994
2023-04-05T02:06:19.601Z,9.744994
2023-04-05T02:07:19.566Z,9.744994
2023-04-05T02:08:19.566Z,9.744994
2023-04-05T02:09:19.551Z,9.744994
2023-04-05T02:10:19.547Z,9.744994
2023-04-05T02:11:19.569Z,9.744994
2023-04-05T02:12:19.537Z,9.744994
2023-04-05T02:13:19.520Z,9.744994
2023-04-05T02:14:19.533Z,9.744994
2023-04-05T02:15:19.508Z,9.744994
2023-04-05T02:16:19.562Z,9.744994
2023-04-05T02:17:19.501Z,9.744994
2023-04-05T02:18:19.526Z,9.744994
2023-04-05T02:19:19.486Z,9.744994
2023-04-05T02:20:19.474Z,9.744994
2023-04-05T02:21:19.487Z,9.744994
2023-04-05T02:22:19.468Z,9.744994
2023-04-05T02:23:19.479Z,9.744994
2023-04-05T02:24:19.450Z,9.744994
2023-04-05T02:25:19.445Z,9.744994
2023-04-05T02:26:19.451Z,9.744994
2023-04-05T02:27:19.421Z,9.744994
2023-04-05T02:28:19.420Z,9.744994
2023-04-05T02:29:19.412Z,9.744994
2023-04-05T02:30:19.400Z,9.744994
2023-04-05T02:31:19.435Z,9.744994
2023-04-05T02:32:19.386Z,9.744994
2023-04-05T02:33:19.377Z,9.744994
2023-04-05T02:34:19.374Z,9.744994
2023-04-05T02:35:19.408Z,9.744994
2023-04-05T02:36:19.374Z,9.744994
2023-04-05T02:37:19.356Z,9.744994
2023-04-05T02:38:19.355Z,9.745631
2023-04-05T02:39:19.331Z,9.745318
2023-04-05T02:40:19.323Z,9.745413
2023-04-05T02:41:19.341Z,9.745545
2023-04-05T02:42:19.316Z,9.745573
2023-04-05T02:43:19.328Z,9.745600
2023-04-05T02:44:19.298Z,9.745620
2023-04-05T02:45:19.292Z,9.745557
2023-04-05T02:46:19.459Z,9.745356
2023-04-05T02:47:19.269Z,9.745400
2023-04-05T02:48:19.274Z,9.745424
2023-04-05T02:49:19.263Z,9.745541
2023-04-05T02:50:19.263Z,9.745449
2023-04-05T02:51:19.275Z,9.745424
2023-04-05T02:52:19.230Z,9.745486
2023-04-05T02:53:19.248Z,9.745517
2023-04-05T02:54:19.218Z,9.745289
2023-04-05T02:55:19.205Z,9.745502
2023-04-05T02:56:19.227Z,9.745503
2023-04-05T02:57:19.201Z,9.745475
2023-04-05T02:58:19.185Z,9.745442
2023-04-05T02:59:19.210Z,9.745538
2023-04-05T03:00:19.180Z,9.745512
2023-04-05T03:01:19.230Z,9.745559
2023-04-05T03:02:19.161Z,9.745497
2023-04-05T03:03:19.202Z,9.745442
2023-04-05T03:04:19.153Z,9.745491
2023-04-05T03:05:19.147Z,9.745572
2023-04-05T03:06:19.150Z,9.745607
2023-04-05T03:07:19.133Z,9.745525
2023-04-05T03:08:19.115Z,9.745432
2023-04-05T03:09:19.112Z,9.745670
2023-04-05T03:10:19.117Z,9.745678
2023-04-05T03:11:19.114Z,9.745506
2023-04-05T03:12:19.085Z,9.745397
2023-04-05T03:13:19.086Z,9.745686
2023-04-05T03:14:19.081Z,9.745700
2023-04-05T03:15:19.066Z,9.745558
2023-04-05T03:16:19.130Z,9.745524
2023-04-05T03:17:19.056Z,9.745681
2023-04-05T03:18:19.043Z,9.745574
2023-04-05T03:19:19.038Z,9.745271
2023-04-05T03:20:19.034Z,9.745506
2023-04-05T03:21:19.085Z,9.745545
2023-04-05T03:22:19.023Z,9.745473
2023-04-05T03:23:19.001Z,9.745317
2023-04-05T03:24:19.007Z,9.745471
2023-04-05T03:25:19.032Z,9.745565
2023-04-05T03:26:19.008Z,9.745760
2023-04-05T03:27:18.969Z,9.745502
2023-04-05T03:28:19.960Z,9.745569
2023-04-05T03:29:18.954Z,9.745441
2023-04-05T03:30:18.969Z,9.745462
2023-04-05T03:31:20.606Z,9.745561
2023-04-05T03:32:19.941Z,9.745537
2023-04-05T03:33:18.935Z,9.745843
2023-04-05T03:34:18.930Z,9.745713
2023-04-05T03:35:19.991Z,9.745751
2023-04-05T03:36:18.942Z,9.745788
2023-04-05T03:37:18.904Z,9.745463
2023-04-05T03:38:18.911Z,9.745471
2023-04-05T03:39:18.889Z,9.745347
2023-04-05T03:40:18.885Z,9.745514
2023-04-05T03:41:18.864Z,9.745536
2023-04-05T03:42:19.894Z,9.745325
2023-04-05T03:43:18.858Z,9.745582
2023-04-05T03:44:18.863Z,9.745489
2023-04-05T03:45:23.317Z,9.745126
2023-04-05T03:46:20.906Z,9.745704
2023-04-05T03:47:18.841Z,9.745660
2023-04-05T03:48:18.821Z,9.745737
2023-04-05T03:49:18.813Z,9.745455
2023-04-05T03:50:18.819Z,9.745604
2023-04-05T03:51:18.794Z,9.745746
2023-04-05T03:52:18.816Z,9.745503
2023-04-05T03:53:18.782Z,9.745737
2023-04-05T03:54:18.774Z,9.745675
2023-04-05T03:55:18.764Z,9.745554
2023-04-05T03:56:18.753Z,9.745614
2023-04-05T03:57:19.750Z,9.745542
2023-04-05T03:58:18.760Z,9.745638
2023-04-05T03:59:18.741Z,9.745550
2023-04-05T04:00:18.727Z,9.745625
2023-04-05T04:01:18.727Z,9.745913
2023-04-05T04:02:18.784Z,9.745597
2023-04-05T04:03:18.704Z,9.745632
2023-04-05T04:04:18.700Z,9.745515
2023-04-05T04:05:18.822Z,9.745540
2023-04-05T04:06:19.511Z,9.745486
2023-04-05T04:07:19.703Z,9.745366
2023-04-05T04:08:18.676Z,9.745518
2023-04-05T04:09:18.663Z,9.745590
2023-04-05T04:10:18.654Z,9.745580
2023-04-05T04:11:18.639Z,9.745520
2023-04-05T04:12:18.655Z,9.745665
2023-04-05T04:13:18.626Z,9.745497
2023-04-05T04:14:18.620Z,9.745296
2023-04-05T04:15:18.612Z,9.745269
2023-04-05T04:16:18.628Z,9.745625
2023-04-05T04:17:18.633Z,9.745576
2023-04-05T04:18:18.610Z,9.745615
2023-04-05T04:19:18.600Z,9.745530
2023-04-05T04:20:18.581Z,9.745668
2023-04-05T04:21:18.588Z,9.745730
2023-04-05T04:22:18.592Z,9.745514
2023-04-05T04:23:18.581Z,9.745609
2023-04-05T04:24:18.620Z,9.745355
2023-04-05T04:25:18.537Z,9.745391
2023-04-05T04:26:18.533Z,9.745460
2023-04-05T04:27:18.564Z,9.745343
2023-04-05T04:28:18.513Z,9.745428
2023-04-05T04:29:18.515Z,9.745572
2023-04-05T04:30:18.515Z,9.745352
2023-04-05T04:31:19.518Z,9.745134
2023-04-05T04:32:18.534Z,9.745316
2023-04-05T04:33:18.545Z,9.745449
2023-04-05T04:34:18.478Z,9.745392
2023-04-05T04:35:18.638Z,9.745100
2023-04-05T04:36:19.175Z,9.745305
2023-04-05T04:37:18.500Z,9.745351
2023-04-05T04:38:18.436Z,9.745491
2023-04-05T04:39:18.434Z,9.745104
2023-04-05T04:40:18.435Z,9.744880
2023-04-05T04:41:18.416Z,9.745088
2023-04-05T04:42:18.430Z,9.745187
2023-04-05T04:43:18.401Z,9.745385
2023-04-05T04:44:18.393Z,9.745708
2023-04-05T04:45:18.395Z,9.745442
2023-04-05T04:46:18.501Z,9.745547
2023-04-05T04:47:18.398Z,9.745391
2023-04-05T04:48:18.361Z,9.745216
2023-04-05T04:49:18.356Z,9.745201
2023-04-05T04:50:18.351Z,9.745183
2023-04-05T04:51:18.347Z,9.745264
2023-04-05T04:52:18.358Z,9.745358
2023-04-05T04:53:18.328Z,9.745432
2023-04-05T04:54:19.323Z,9.745126
2023-04-05T04:55:18.310Z,9.744781
2023-04-05T04:56:18.310Z,9.744993
2023-04-05T04:57:18.321Z,9.745155
2023-04-05T04:58:18.312Z,9.745082
2023-04-05T04:59:19.338Z,9.745185
2023-04-05T05:00:18.279Z,9.745069
2023-04-05T05:01:18.344Z,9.745019
2023-04-05T05:02:18.285Z,9.745010
2023-04-05T05:03:18.256Z,9.745124
2023-04-05T05:04:18.286Z,9.744984
2023-04-05T05:05:18.237Z,9.744984
2023-04-05T05:06:19.237Z,9.745013
2023-04-05T05:07:18.254Z,9.745432
2023-04-05T05:08:20.601Z,9.745596
2023-04-05T05:09:19.220Z,9.745592
2023-04-05T05:10:18.205Z,9.745701
2023-04-05T05:11:18.205Z,9.745551
2023-04-05T05:12:18.220Z,9.745433
2023-04-05T05:13:18.190Z,9.745172
2023-04-05T05:14:18.187Z,9.745292
2023-04-05T05:15:18.172Z,9.745289
2023-04-05T05:16:18.199Z,9.745219
2023-04-05T05:17:18.186Z,9.745038
2023-04-05T05:18:18.151Z,9.745598
2023-04-05T05:19:18.145Z,9.745461
2023-04-05T05:20:18.137Z,9.745615
2023-04-05T05:21:18.130Z,9.745333
2023-04-05T05:22:18.160Z,9.746146
2023-04-05T05:23:18.123Z,9.745904
2023-04-05T05:24:18.103Z,9.745871
2023-04-05T05:25:18.098Z,9.745465
2023-04-05T05:26:18.086Z,9.745647
2023-04-05T05:27:18.125Z,9.745684
2023-04-05T05:28:18.081Z,9.745543
2023-04-05T05:29:18.067Z,9.745526
2023-04-05T05:30:18.061Z,9.746007
2023-04-05T05:31:18.223Z,9.745923
2023-04-05T05:32:18.068Z,9.745559
2023-04-05T05:33:18.039Z,9.745931
2023-04-05T05:34:18.037Z,9.746021
2023-04-05T05:35:18.046Z,9.746155
2023-04-05T05:36:18.012Z,9.745814
2023-04-05T05:37:18.038Z,9.745982
2023-04-05T05:38:18.001Z,9.746037
2023-04-05T05:39:17.997Z,9.745611
2023-04-05T05:40:17.978Z,9.745356
2023-04-05T05:41:17.967Z,9.745929
2023-04-05T05:42:18.022Z,9.745707
2023-04-05T05:43:17.953Z,9.745621
2023-04-05T05:44:17.957Z,9.745774
2023-04-05T05:45:17.936Z,9.745739
2023-04-05T05:46:19.396Z,9.745608
2023-04-05T05:47:17.920Z,9.745342
2023-04-05T05:48:17.934Z,9.745221
2023-04-05T05:49:17.947Z,9.745474
2023-04-05T05:50:17.892Z,9.745916
2023-04-05T05:51:17.884Z,9.745656
2023-04-05T05:52:17.876Z,9.745608
2023-04-05T05:53:17.911Z,9.745479
2023-04-05T05:54:17.862Z,9.745458
2023-04-05T05:55:17.853Z,9.745303
2023-04-05T05:56:17.849Z,9.745434
2023-04-05T05:57:17.837Z,9.745317
2023-04-05T05:58:17.864Z,9.745128
2023-04-05T05:59:17.845Z,9.745044
2023-04-05T06:00:17.863Z,9.745297
2023-04-05T06:01:17.809Z,9.745576
2023-04-05T06:02:17.808Z,9.745557
2023-04-05T06:03:17.918Z,9.745498
2023-04-05T06:04:17.916Z,9.745490
2023-04-05T06:05:17.781Z,9.745466
2023-04-05T06:06:17.765Z,9.745456
2023-04-05T06:07:17.763Z,9.745450
2023-04-05T06:08:17.780Z,9.745337
2023-04-05T06:09:17.747Z,9.745456
2023-04-05T06:10:17.742Z,9.745543
2023-04-05T06:11:17.744Z,9.745522
2023-04-05T06:12:17.748Z,9.745593
2023-04-05T06:13:17.748Z,9.745445
2023-04-05T06:14:17.711Z,9.745470
2023-04-05T06:15:17.697Z,9.745469
2023-04-05T06:16:17.732Z,9.745513
2023-04-05T06:17:17.689Z,9.745594
2023-04-05T06:18:17.739Z,9.745438
2023-04-05T06:19:17.685Z,9.745558
2023-04-05T06:20:17.661Z,9.745639
2023-04-05T06:21:17.703Z,9.745608
2023-04-05T06:22:17.644Z,9.745639
2023-04-05T06:23:17.661Z,9.745580
2023-04-05T06:24:17.632Z,9.745594
2023-04-05T06:25:18.351Z,9.745594
2023-04-05T06:26:18.608Z,9.745542
2023-04-05T06:27:17.604Z,9.745644
2023-04-05T06:28:17.615Z,9.745638
2023-04-05T06:29:17.587Z,9.745600
2023-04-05T06:30:17.579Z,9.745667
2023-04-05T06:31:17.879Z,9.745662
2023-04-05T06:32:17.558Z,9.745591
2023-04-05T06:33:17.593Z,9.745732
2023-04-05T06:34:17.539Z,9.745776
2023-04-05T06:35:17.537Z,9.745785
2023-04-05T06:36:17.531Z,9.745693
2023-04-05T06:37:17.521Z,9.745611
2023-04-05T06:38:17.544Z,9.745564
2023-04-05T06:39:17.505Z,9.745506
2023-04-05T06:40:17.483Z,9.745509
2023-04-05T06:41:18.489Z,9.745653
2023-04-05T06:42:17.487Z,9.745695
2023-04-05T06:43:17.497Z,9.745751
2023-04-05T06:44:17.465Z,9.745697
2023-04-05T06:45:17.465Z,9.745787
2023-04-05T06:46:17.467Z,9.745613
2023-04-05T06:47:17.439Z,9.745705
2023-04-05T06:48:17.459Z,9.745740
2023-04-05T06:49:17.427Z,9.745512
2023-04-05T06:50:17.418Z,9.745638
2023-04-05T06:51:17.417Z,9.745946
2023-04-05T06:52:17.402Z,9.745544
2023-04-05T06:53:17.430Z,9.745747
2023-04-05T06:54:17.389Z,9.745545
2023-04-05T06:55:17.381Z,9.745318
2023-04-05T06:56:17.373Z,9.744989
2023-04-05T06:57:17.364Z,9.745519
2023-04-05T06:58:17.409Z,9.745491
2023-04-05T06:59:17.412Z,9.745268
2023-04-05T07:00:17.371Z,9.745318
2023-04-05T07:01:17.419Z,9.745526
2023-04-05T07:02:17.327Z,9.745504
2023-04-05T07:03:17.388Z,9.745389
2023-04-05T07:04:17.345Z,9.745693
2023-04-05T07:05:17.308Z,9.745294
2023-04-05T07:06:17.295Z,9.745767
2023-04-05T07:07:17.284Z,9.745934
2023-04-05T07:08:17.371Z,9.745561
2023-04-05T07:09:17.272Z,9.745103
2023-04-05T07:10:17.271Z,9.745378
2023-04-05T07:11:17.261Z,9.745505
2023-04-05T07:12:17.251Z,9.745794
2023-04-05T07:13:17.280Z,9.745410
2023-04-05T07:14:17.249Z,9.745615
2023-04-05T07:15:17.230Z,9.745593
2023-04-05T07:16:17.278Z,9.745800
2023-04-05T07:17:17.210Z,9.745716
2023-04-05T07:18:17.236Z,9.745604
2023-04-05T07:19:17.201Z,9.745522
2023-04-05T07:20:17.189Z,9.745507
2023-04-05T07:21:17.184Z,9.745446
2023-04-05T07:22:17.380Z,9.745536
2023-04-05T07:23:17.187Z,9.745613
2023-04-05T07:24:17.157Z,9.745562
2023-04-05T07:25:17.148Z,9.745376
2023-04-05T07:26:17.142Z,9.745256
2023-04-05T07:27:17.136Z,9.745730
2023-04-05T07:28:17.171Z,9.746005
2023-04-05T07:29:17.126Z,9.745729
2023-04-05T07:30:17.119Z,9.745642
2023-04-05T07:31:17.144Z,9.745514
2023-04-05T07:32:17.116Z,9.745257
2023-04-05T07:33:17.140Z,9.745173
2023-04-05T07:34:17.083Z,9.745355
2023-04-05T07:35:17.083Z,9.745285
2023-04-05T07:36:17.122Z,9.745422
2023-04-05T07:37:17.067Z,9.745417
2023-04-05T07:38:17.090Z,9.745195
2023-04-05T07:39:17.054Z,9.745996
2023-04-05T07:40:17.038Z,9.745576
2023-04-05T07:41:17.039Z,9.745455
2023-04-05T07:42:17.030Z,9.745421
2023-04-05T07:43:17.040Z,9.745567
2023-04-05T07:44:17.016Z,9.745520
2023-04-05T07:45:17.015Z,9.745395
2023-04-05T07:46:17.015Z,9.745259
2023-04-05T07:47:16.988Z,9.745433
2023-04-05T07:48:17.006Z,9.745420
2023-04-05T07:49:16.975Z,9.745467
2023-04-05T07:50:16.970Z,9.745281
2023-04-05T07:51:16.961Z,9.745027
2023-04-05T07:52:16.956Z,9.745068
2023-04-05T07:53:16.999Z,9.745234
2023-04-05T07:54:16.964Z,9.745158
2023-04-05T07:55:16.940Z,9.745297
2023-04-05T07:56:16.954Z,9.745236
2023-04-05T07:57:16.938Z,9.745275
2023-04-05T07:58:16.938Z,9.745450
2023-04-05T07:59:16.938Z,9.745511
2023-04-05T08:00:16.898Z,9.745499
2023-04-05T08:01:16.894Z,9.745519
2023-04-05T08:02:16.889Z,9.745494
2023-04-05T08:03:16.955Z,9.745490
2023-04-05T08:04:16.879Z,9.745616
2023-04-05T08:05:16.892Z,9.745833
2023-04-05T08:06:16.853Z,9.745656
2023-04-05T08:07:16.853Z,9.745600
2023-04-05T08:08:16.871Z,9.745581
2023-04-05T08:09:16.843Z,9.745546
2023-04-05T08:10:16.817Z,9.745510
2023-04-05T08:11:16.819Z,9.745743
2023-04-05T08:12:16.809Z,9.745669
2023-04-05T08:13:16.832Z,9.745487
2023-04-05T08:14:16.794Z,9.745633
2023-04-05T08:15:16.783Z,9.745510
2023-04-05T08:16:16.828Z,9.745333
2023-04-05T08:17:16.836Z,9.745423
2023-04-05T08:18:16.798Z,9.745523
2023-04-05T08:19:16.763Z,9.745623
2023-04-05T08:20:16.750Z,9.745808
2023-04-05T08:21:16.744Z,9.745620
2023-04-05T08:22:16.738Z,9.745690
2023-04-05T08:23:16.759Z,9.745620
2023-04-05T08:24:16.732Z,9.745543
2023-04-05T08:25:16.715Z,9.745724
2023-04-05T08:26:16.706Z,9.745526
2023-04-05T08:27:16.735Z,9.745522
2023-04-05T08:28:16.722Z,9.745601
2023-04-05T08:29:16.692Z,9.745452
2023-04-05T08:30:16.677Z,9.745403
2023-04-05T08:31:16.686Z,9.745643
2023-04-05T08:32:16.701Z,9.745421
2023-04-05T08:33:16.772Z,9.745472
2023-04-05T08:34:16.653Z,9.745605
2023-04-05T08:35:16.644Z,9.745711
2023-04-05T08:36:16.638Z,9.745581
2023-04-05T08:37:16.638Z,9.745528
2023-04-05T08:38:16.656Z,9.745544
2023-04-05T08:39:16.624Z,9.745802
2023-04-05T08:40:16.617Z,9.745462
2023-04-05T08:41:16.612Z,9.745471
2023-04-05T08:42:16.602Z,9.745540
2023-04-05T08:43:18.478Z,9.745463
2023-04-05T08:44:16.595Z,9.745441
2023-04-05T08:45:16.601Z,9.745620
2023-04-05T08:46:16.661Z,9.745607
2023-04-05T08:47:16.564Z,9.745695
2023-04-05T08:48:16.556Z,9.745646
2023-04-05T08:49:16.575Z,9.745631
2023-04-05T08:50:16.546Z,9.745685
2023-04-05T08:51:16.532Z,9.745647
2023-04-05T08:52:17.528Z,9.745627
2023-04-05T08:53:16.525Z,9.745660
2023-04-05T08:54:16.558Z,9.745657
2023-04-05T08:55:16.507Z,9.745687
2023-04-05T08:56:16.506Z,9.745597
2023-04-05T08:57:16.497Z,9.745619
2023-04-05T08:58:16.485Z,9.745567
2023-04-05T08:59:16.529Z,9.745655
2023-04-05T09:00:16.470Z,9.745577
2023-04-05T09:01:16.523Z,9.745585
2023-04-05T09:02:16.564Z,9.745536
2023-04-05T09:03:16.535Z,9.745515
2023-04-05T09:04:16.474Z,9.745661
2023-04-05T09:05:16.441Z,9.745603
2023-04-05T09:06:16.424Z,9.745724
2023-04-05T09:07:16.436Z,9.745492
2023-04-05T09:08:16.413Z,9.745454
2023-04-05T09:09:17.107Z,9.745451
2023-04-05T09:10:16.400Z,9.745569
2023-04-05T09:11:16.399Z,9.745597
2023-04-05T09:12:16.382Z,9.745688
2023-04-05T09:13:16.382Z,9.745760
2023-04-05T09:14:16.390Z,9.745655
2023-04-05T09:15:16.404Z,9.745705
2023-04-05T09:16:16.402Z,9.745616
2023-04-05T09:17:16.395Z,9.745638
2023-04-05T09:18:26.127Z,9.745578
2023-04-05T09:19:18.358Z,9.745542
2023-04-05T09:20:16.334Z,9.745535
2023-04-05T09:21:16.315Z,9.745669
2023-04-05T09:22:16.308Z,9.745620
2023-04-05T09:23:16.296Z,9.745570
2023-04-05T09:24:16.326Z,9.745564
2023-04-05T09:25:16.281Z,9.745567
2023-04-05T09:26:16.275Z,9.745654
2023-04-05T09:27:16.285Z,9.745676
2023-04-05T09:28:16.262Z,9.745793
2023-04-05T09:29:16.278Z,9.745645
2023-04-05T09:30:16.251Z,9.745828
2023-04-05T09:31:16.241Z,9.745708
2023-04-05T09:32:16.250Z,9.745605
2023-04-05T09:33:16.224Z,9.745650
2023-04-05T09:34:16.241Z,9.745687
2023-04-05T09:35:16.213Z,9.745736
2023-04-05T09:36:16.199Z,9.745682
2023-04-05T09:37:16.211Z,9.745699
2023-04-05T09:38:16.199Z,9.745598
2023-04-05T09:39:16.219Z,9.745564
2023-04-05T09:40:16.177Z,9.745637
2023-04-05T09:41:16.165Z,9.745540
2023-04-05T09:42:16.155Z,9.745511
2023-04-05T09:43:16.156Z,9.745630
2023-04-05T09:44:16.170Z,9.745539
2023-04-05T09:45:16.139Z,9.745644
2023-04-05T09:46:16.152Z,9.745676
2023-04-05T09:47:16.149Z,9.745661
2023-04-05T09:48:16.132Z,9.745739
2023-04-05T09:49:16.128Z,9.745710
2023-04-05T09:50:16.137Z,9.745768
2023-04-05T09:51:16.101Z,9.745730
2023-04-05T09:52:16.079Z,9.745723
2023-04-05T09:53:16.386Z,9.745656
2023-04-05T09:54:16.083Z,9.745629
2023-04-05T09:55:16.055Z,9.745524
2023-04-05T09:56:16.048Z,9.745563
2023-04-05T09:57:16.036Z,9.745568
2023-04-05T09:58:16.030Z,9.745630
2023-04-05T09:59:16.095Z,9.745665
2023-04-05T10:00:17.014Z,9.745692
2023-04-05T10:01:17.411Z,9.745712
2023-04-05T10:02:17.069Z,9.745729
2023-04-05T10:03:16.044Z,9.745532
2023-04-05T10:04:16.144Z,9.745595
2023-04-05T10:05:15.998Z,9.745664
2023-04-05T10:06:15.965Z,9.745657
2023-04-05T10:07:15.968Z,9.745541
2023-04-05T10:08:15.953Z,9.745499
2023-04-05T10:09:15.965Z,9.745468
2023-04-05T10:10:15.940Z,9.745321
2023-04-05T10:11:15.921Z,9.745565
2023-04-05T10:12:16.914Z,9.745605
2023-04-05T10:13:15.922Z,9.745580
2023-04-05T10:14:15.940Z,9.745471
2023-04-05T10:15:15.888Z,9.745836
2023-04-05T10:16:16.016Z,9.745915
2023-04-05T10:17:15.874Z,9.745744
2023-04-05T10:18:15.911Z,9.745566
2023-04-05T10:19:15.889Z,9.745480
2023-04-05T10:20:15.846Z,9.745624
2023-04-05T10:21:15.840Z,9.745541
2023-04-05T10:22:15.833Z,9.745567
2023-04-05T10:23:15.860Z,9.745477
2023-04-05T10:24:15.820Z,9.745575
2023-04-05T10:25:15.855Z,9.745643
2023-04-05T10:26:15.804Z,9.745655
2023-04-05T10:27:15.806Z,9.745433
2023-04-05T10:28:15.791Z,9.745382
2023-04-05T10:29:15.784Z,9.745591
2023-04-05T10:30:15.888Z,9.745687
2023-04-05T10:31:27.021Z,9.745997
2023-04-05T10:32:17.816Z,9.745723
2023-04-05T10:33:15.762Z,9.745824
2023-04-05T10:34:15.747Z,9.745530
2023-04-05T10:35:15.765Z,9.745548
2023-04-05T10:36:15.760Z,9.745612
2023-04-05T10:37:15.756Z,9.745595
2023-04-05T10:38:15.755Z,9.745546
2023-04-05T10:39:15.709Z,9.745536
2023-04-05T10:40:15.730Z,9.745432
2023-04-05T10:41:15.676Z,9.745537
2023-04-05T10:42:15.680Z,9.745425
2023-04-05T10:43:15.672Z,9.745672
2023-04-05T10:44:25.720Z,9.745616
2023-04-05T10:45:17.743Z,9.745521
2023-04-05T10:46:15.726Z,9.745652
2023-04-05T10:47:15.764Z,9.745503
2023-04-05T10:48:15.673Z,9.745606
2023-04-05T10:49:15.640Z,9.745526
2023-04-05T10:50:15.635Z,9.745644
2023-04-05T10:51:15.640Z,9.745713
2023-04-05T10:52:15.622Z,9.745711
2023-04-05T10:53:15.658Z,9.745384
2023-04-05T10:54:15.585Z,9.745345
2023-04-05T10:55:15.668Z,9.745469
2023-04-05T10:56:15.606Z,9.745582
2023-04-05T10:57:15.566Z,9.745542
2023-04-05T10:58:15.586Z,9.745679
2023-04-05T10:59:15.634Z,9.745660
2023-04-05T11:00:15.623Z,9.745336
2023-04-05T11:01:15.574Z,9.745561
2023-04-05T11:02:15.532Z,9.745532
2023-04-05T11:03:15.546Z,9.745729
2023-04-05T11:04:15.546Z,9.745564
2023-04-05T11:05:15.531Z,9.745738
2023-04-05T11:06:15.498Z,9.745797
2023-04-05T11:07:15.482Z,9.745848
2023-04-05T11:08:15.471Z,9.745832
2023-04-05T11:09:15.459Z,9.745651
2023-04-05T11:10:15.485Z,9.745669
2023-04-05T11:11:15.458Z,9.745935
2023-04-05T11:12:15.450Z,9.745770
2023-04-05T11:13:15.432Z,9.745771
2023-04-05T11:14:15.433Z,9.745838
2023-04-05T11:15:15.461Z,9.745915
2023-04-05T11:16:15.447Z,9.745929
2023-04-05T11:17:15.422Z,9.746228
2023-04-05T11:18:15.400Z,9.745646
2023-04-05T11:19:15.384Z,9.745610
2023-04-05T11:20:15.413Z,9.745610
2023-04-05T11:21:15.367Z,9.745351
2023-04-05T11:22:15.371Z,9.745439
2023-04-05T11:23:15.367Z,9.745493
2023-04-05T11:24:15.352Z,9.745485
2023-04-05T11:25:15.365Z,9.745380
2023-04-05T11:26:15.334Z,9.745348
2023-04-05T11:27:15.352Z,9.745434
2023-04-05T11:28:15.310Z,9.745500
2023-04-05T11:29:15.310Z,9.745451
2023-04-05T11:30:15.313Z,9.745479
2023-04-05T11:31:15.396Z,9.745603
2023-04-05T11:32:15.280Z,9.745385
2023-04-05T11:33:15.279Z,9.745427
2023-04-05T11:34:15.278Z,9.745472
2023-04-05T11:35:15.282Z,9.745412
2023-04-05T11:36:15.324Z,9.745440
2023-04-05T11:37:15.265Z,9.745370
2023-04-05T11:38:15.237Z,9.745481
2023-04-05T11:39:15.229Z,9.745574
2023-04-05T11:40:15.248Z,9.745560
2023-04-05T11:41:15.236Z,9.745534
2023-04-05T11:42:15.212Z,9.745414
2023-04-05T11:43:15.207Z,9.745493
2023-04-05T11:44:15.201Z,9.745489